createdAt,value
2023-05-19T00:02:09.340Z,64.36
2023-05-19T00:04:37.091Z,64.55
2023-05-19T00:07:05.573Z,64.85
2023-05-19T00:09:34.556Z,64.94
2023-05-19T00:12:01.162Z,65.12
2023-05-19T00:14:29.058Z,65.35
2023-05-19T00:16:58.519Z,65.44
2023-05-19T00:19:25.573Z,65.84
2023-05-19T00:21:52.147Z,65.80
2023-05-19T00:24:18.773Z,66.13
2023-05-19T00:26:45.373Z,66.30
2023-05-19T00:29:11.880Z,66.54
2023-05-19T00:31:38.477Z,66.83
2023-05-19T00:34:05.077Z,67.02
2023-05-19T00:36:31.790Z,67.06
2023-05-19T00:38:58.241Z,67.21
2023-05-19T00:41:24.995Z,67.49
2023-05-19T00:43:51.647Z,67.96
2023-05-19T00:46:19.368Z,68.05
2023-05-19T00:48:45.980Z,68.29
2023-05-19T00:51:16.927Z,68.43
2023-05-19T00:53:50.356Z,68.87
2023-05-19T00:56:18.234Z,68.88
2023-05-19T00:58:45.502Z,69.14
2023-05-19T01:01:16.685Z,69.27
2023-05-19T01:03:44.282Z,69.70
2023-05-19T01:06:12.349Z,69.72
2023-05-19T01:08:39.402Z,70.17
2023-05-19T01:11:07.945Z,69.93
2023-05-19T01:13:35.698Z,70.46
2023-05-19T01:16:37.462Z,70.16
2023-05-19T01:19:24.439Z,70.33
2023-05-19T01:22:06.916Z,70.95
2023-05-19T01:24:58.903Z,71.48
2023-05-19T01:27:47.017Z,71.97
2023-05-19T01:30:29.368Z,71.95
2023-05-19T01:33:01.648Z,72.30
2023-05-19T01:35:29.224Z,72.29
2023-05-19T01:37:58.532Z,72.56
2023-05-19T01:40:26.538Z,72.61
2023-05-19T01:42:57.566Z,72.98
2023-05-19T01:45:25.698Z,73.45
2023-05-19T01:47:55.503Z,73.70
2023-05-19T01:50:22.541Z,73.66
2023-05-19T01:52:49.489Z,74.10
2023-05-19T01:55:16.079Z,74.64
2023-05-19T01:58:06.819Z,75.04
2023-05-19T02:01:03.271Z,75.13
2023-05-19T02:03:45.994Z,75.27
2023-05-19T02:06:22.927Z,75.81
2023-05-19T02:08:58.636Z,75.81
2023-05-19T02:11:46.488Z,76.62
2023-05-19T02:14:23.872Z,76.88
2023-05-19T02:16:50.830Z,77.22
2023-05-19T02:19:37.227Z,78.08
2023-05-19T02:22:03.862Z,77.87
2023-05-19T02:24:30.401Z,78.59
2023-05-19T02:26:56.919Z,78.70
2023-05-19T02:29:23.549Z,78.87
2023-05-19T02:31:50.229Z,79.15
2023-05-19T02:34:21.023Z,79.54
2023-05-19T02:36:49.777Z,79.49
2023-05-19T02:39:16.508Z,79.83
2023-05-19T02:41:42.944Z,80.00
2023-05-19T02:44:09.474Z,79.89
2023-05-19T02:46:36.262Z,80.27
2023-05-19T02:49:02.926Z,81.21
2023-05-19T02:51:29.442Z,81.64
2023-05-19T02:53:56.036Z,81.46
2023-05-19T02:56:26.419Z,81.66
2023-05-19T02:58:53.067Z,81.93
2023-05-19T03:01:21.334Z,82.20
2023-05-19T03:03:47.945Z,82.50
2023-05-19T03:06:15.663Z,82.80
2023-05-19T03:08:42.498Z,82.55
2023-05-19T03:11:09.175Z,82.87
2023-05-19T03:13:35.738Z,83.04
2023-05-19T03:16:03.421Z,83.20
2023-05-19T03:18:29.914Z,83.75
2023-05-19T03:20:56.579Z,83.84
2023-05-19T03:23:23.217Z,83.80
2023-05-19T03:25:49.736Z,83.88
2023-05-19T03:28:17.160Z,84.30
2023-05-19T03:30:43.655Z,84.25
2023-05-19T03:33:10.308Z,84.20
2023-05-19T03:35:36.956Z,84.83
2023-05-19T03:38:03.491Z,84.97
2023-05-19T03:40:37.222Z,84.88
2023-05-19T03:43:03.769Z,85.19
2023-05-19T03:45:30.362Z,85.24
2023-05-19T03:47:56.971Z,85.60
2023-05-19T03:50:23.475Z,86.19
2023-05-19T03:52:50.016Z,85.99
2023-05-19T03:55:16.740Z,86.43
2023-05-19T03:57:46.810Z,86.61
2023-05-19T04:00:13.758Z,86.67
2023-05-19T04:02:45.785Z,86.69
2023-05-19T04:05:12.259Z,86.86
2023-05-19T04:07:38.828Z,86.85
2023-05-19T04:10:06.066Z,86.92
2023-05-19T04:12:33.055Z,86.98
2023-05-19T04:14:59.775Z,87.47
2023-05-19T04:17:26.688Z,87.33
2023-05-19T04:19:53.837Z,87.53
2023-05-19T04:22:20.977Z,87.40
2023-05-19T04:24:51.013Z,87.33
2023-05-19T04:27:18.155Z,87.28
2023-05-19T04:29:46.052Z,87.46
2023-05-19T04:32:17.654Z,87.57
2023-05-19T04:34:47.265Z,87.88
2023-05-19T04:37:16.570Z,88.07
2023-05-19T04:39:45.117Z,87.96
2023-05-19T04:42:11.807Z,87.88
2023-05-19T04:44:40.214Z,87.83
2023-05-19T04:47:10.538Z,88.32
2023-05-19T04:49:39.828Z,87.93
2023-05-19T04:52:10.361Z,88.21
2023-05-19T04:54:37.897Z,88.22
2023-05-19T04:57:04.815Z,88.15
2023-05-19T04:59:31.476Z,88.31
2023-05-19T05:01:58.119Z,88.37
2023-05-19T05:04:25.213Z,88.21
2023-05-19T05:06:51.901Z,88.60
2023-05-19T05:09:21.288Z,88.39
2023-05-19T05:11:51.738Z,88.50
2023-05-19T05:14:19.268Z,88.54
2023-05-19T05:16:46.464Z,88.53
2023-05-19T05:19:13.417Z,88.50
2023-05-19T05:21:41.608Z,87.67
2023-05-19T05:24:09.282Z,87.36
2023-05-19T05:26:36.034Z,87.52
2023-05-19T05:29:03.727Z,87.04
2023-05-19T05:31:30.218Z,87.04
2023-05-19T05:33:56.804Z,86.45
2023-05-19T05:36:23.253Z,86.25
2023-05-19T05:38:52.663Z,85.83
2023-05-19T05:41:20.251Z,85.13
2023-05-19T05:43:46.740Z,84.94
2023-05-19T05:46:20.759Z,83.92
2023-05-19T05:48:47.475Z,83.06
2023-05-19T05:51:14.451Z,82.86
2023-05-19T05:53:44.761Z,81.91
2023-05-19T05:56:11.979Z,79.58
2023-05-19T05:58:40.577Z,78.88
2023-05-19T06:01:11.049Z,76.62
2023-05-19T06:03:41.994Z,74.47
2023-05-19T06:06:10.637Z,72.25
2023-05-19T06:08:37.166Z,70.58
2023-05-19T06:11:08.984Z,69.12
2023-05-19T06:13:36.222Z,68.69
2023-05-19T06:16:06.231Z,65.26
2023-05-19T06:18:32.857Z,63.04
2023-05-19T06:20:59.392Z,60.13
2023-05-19T06:23:26.982Z,59.54
2023-05-19T06:25:53.454Z,57.27
2023-05-19T06:28:19.905Z,55.22
2023-05-19T06:30:46.418Z,54.43
2023-05-19T06:33:13.093Z,53.63
2023-05-19T06:35:39.578Z,52.66
2023-05-19T06:38:06.029Z,50.86
2023-05-19T06:40:32.794Z,51.29
2023-05-19T06:42:59.357Z,50.85
2023-05-19T06:45:26.012Z,50.29
2023-05-19T06:47:52.828Z,50.32
2023-05-19T06:50:19.304Z,50.63
2023-05-19T06:52:47.093Z,50.33
2023-05-19T06:55:13.538Z,49.95
2023-05-19T06:57:40.047Z,50.24
2023-05-19T07:00:10.297Z,49.59
2023-05-19T07:02:36.883Z,48.65
2023-05-19T07:05:03.931Z,48.47
2023-05-19T07:07:30.408Z,48.18
2023-05-19T07:09:57.032Z,47.34
2023-05-19T07:12:23.458Z,47.19
2023-05-19T07:14:49.893Z,47.06
2023-05-19T07:17:16.751Z,47.14
2023-05-19T07:19:43.233Z,45.99
2023-05-19T07:22:09.735Z,45.43
2023-05-19T07:24:39.130Z,45.75
2023-05-19T07:27:09.775Z,45.69
2023-05-19T07:29:36.618Z,45.87
2023-05-19T07:32:12.760Z,45.24
2023-05-19T07:34:40.539Z,45.04
2023-05-19T07:37:09.622Z,44.84
2023-05-19T07:39:36.432Z,45.14
2023-05-19T07:42:03.210Z,44.43
2023-05-19T07:44:31.373Z,44.00
2023-05-19T07:46:57.911Z,44.10
2023-05-19T07:49:24.446Z,44.38
2023-05-19T07:51:50.935Z,44.21
2023-05-19T07:54:17.485Z,44.06
2023-05-19T07:56:53.104Z,44.37
2023-05-19T07:59:19.610Z,43.88
2023-05-19T08:01:46.239Z,42.94
2023-05-19T08:04:13.444Z,42.08
2023-05-19T08:06:40.182Z,40.72
2023-05-19T08:09:07.770Z,39.92
2023-05-19T08:11:34.375Z,39.44
2023-05-19T08:14:00.959Z,38.50
2023-05-19T08:16:27.696Z,37.32
2023-05-19T08:18:56.502Z,36.73
2023-05-19T08:21:23.065Z,36.25
2023-05-19T08:23:49.572Z,36.55
2023-05-19T08:26:16.335Z,36.66
2023-05-19T08:28:44.153Z,37.06
2023-05-19T08:31:10.876Z,36.85
2023-05-19T08:33:37.414Z,36.73
2023-05-19T08:36:04.437Z,35.69
2023-05-19T08:38:33.592Z,35.77
2023-05-19T08:41:00.055Z,34.71
2023-05-19T08:43:26.537Z,34.61
2023-05-19T08:45:54.160Z,35.20
2023-05-19T08:48:22.184Z,35.41
2023-05-19T08:51:14.483Z,35.40
2023-05-19T08:53:45.897Z,34.59
2023-05-19T08:56:16.544Z,34.31
2023-05-19T08:58:44.754Z,33.62
2023-05-19T09:01:17.617Z,33.77
2023-05-19T09:03:49.730Z,32.96
2023-05-19T09:06:16.992Z,33.30
2023-05-19T09:08:44.263Z,32.82
2023-05-19T09:11:11.874Z,33.28
2023-05-19T09:13:39.122Z,33.19
2023-05-19T09:16:06.290Z,32.58
2023-05-19T09:18:32.856Z,32.40
2023-05-19T09:21:07.519Z,31.65
2023-05-19T09:23:34.180Z,31.09
2023-05-19T09:26:09.889Z,31.04
2023-05-19T09:28:38.266Z,31.24
2023-05-19T09:31:09.748Z,30.92
2023-05-19T09:33:36.880Z,31.54
2023-05-19T09:36:06.189Z,31.11
2023-05-19T09:38:33.032Z,31.15
2023-05-19T09:41:01.052Z,31.13
2023-05-19T09:43:29.276Z,29.80
2023-05-19T09:46:16.113Z,29.47
2023-05-19T09:48:45.900Z,28.43
2023-05-19T09:51:12.444Z,27.92
2023-05-19T09:53:40.660Z,28.19
2023-05-19T09:56:08.789Z,28.13
2023-05-19T09:58:36.541Z,28.59
2023-05-19T10:01:04.280Z,28.40
2023-05-19T10:03:34.733Z,28.81
2023-05-19T10:06:04.320Z,28.57
2023-05-19T10:08:31.833Z,28.45
2023-05-19T10:11:01.648Z,28.36
2023-05-19T10:13:29.659Z,28.41
2023-05-19T10:15:59.738Z,27.69
2023-05-19T10:18:29.212Z,28.31
2023-05-19T10:20:57.742Z,27.84
2023-05-19T10:23:27.306Z,27.89
2023-05-19T10:25:58.274Z,27.73
2023-05-19T10:28:31.580Z,27.84
2023-05-19T10:31:04.678Z,27.10
2023-05-19T10:34:09.287Z,27.43
2023-05-19T10:36:47.672Z,27.36
2023-05-19T10:39:29.681Z,27.16
2023-05-19T10:42:41.318Z,27.14
2023-05-19T10:45:27.683Z,26.62
2023-05-19T10:47:54.754Z,26.46
2023-05-19T10:50:24.382Z,25.75
2023-05-19T10:52:56.421Z,25.82
2023-05-19T10:55:45.965Z,25.47
2023-05-19T10:58:12.498Z,25.88
2023-05-19T11:00:39.786Z,26.32
2023-05-19T11:03:16.703Z,25.93
2023-05-19T11:05:45.646Z,25.87
2023-05-19T11:08:32.205Z,26.25
2023-05-19T11:11:13.380Z,26.54
2023-05-19T11:13:42.960Z,26.13
2023-05-19T11:16:10.199Z,26.23
2023-05-19T11:18:38.372Z,26.36
2023-05-19T11:21:05.312Z,26.67
2023-05-19T11:23:38.211Z,26.71
2023-05-19T11:26:07.640Z,26.81
2023-05-19T11:28:34.196Z,26.17
2023-05-19T11:31:02.181Z,26.27
2023-05-19T11:33:28.776Z,25.75
2023-05-19T11:35:59.239Z,24.93
2023-05-19T11:38:28.056Z,25.05
2023-05-19T11:40:54.994Z,25.67
2023-05-19T11:43:25.034Z,25.20
2023-05-19T11:45:51.828Z,25.31
2023-05-19T11:48:24.702Z,25.34
2023-05-19T11:50:51.530Z,24.83
2023-05-19T11:53:19.595Z,25.12
2023-05-19T11:55:47.493Z,24.86
2023-05-19T11:58:17.612Z,24.57
2023-05-19T12:00:47.331Z,25.12
2023-05-19T12:03:14.044Z,24.83
2023-05-19T12:05:47.348Z,25.22
2023-05-19T12:08:16.169Z,24.61
2023-05-19T12:10:42.667Z,24.19
2023-05-19T12:13:09.963Z,24.29
2023-05-19T12:15:37.479Z,24.63
2023-05-19T12:18:04.261Z,24.29
2023-05-19T12:20:39.265Z,24.54
2023-05-19T12:23:05.941Z,24.49
2023-05-19T12:25:34.070Z,24.58
2023-05-19T12:28:05.356Z,24.71
2023-05-19T12:30:33.655Z,24.76
2023-05-19T12:33:02.379Z,24.85
2023-05-19T12:35:33.827Z,24.66
2023-05-19T12:38:11.375Z,25.19
2023-05-19T12:40:42.453Z,25.16
2023-05-19T12:43:19.111Z,24.90
2023-05-19T12:45:45.866Z,25.13
2023-05-19T12:48:12.699Z,25.15
2023-05-19T12:50:40.647Z,24.44
2023-05-19T12:53:14.191Z,24.99
2023-05-19T12:55:45.002Z,24.62
2023-05-19T12:58:12.632Z,24.22
2023-05-19T13:00:45.391Z,24.17
2023-05-19T13:03:20.202Z,24.11
2023-05-19T13:05:48.951Z,24.44
2023-05-19T13:08:20.470Z,24.29
2023-05-19T13:10:47.651Z,24.13
2023-05-19T13:13:16.690Z,24.21
2023-05-19T13:15:52.145Z,23.93
2023-05-19T13:18:18.814Z,23.69
2023-05-19T13:20:46.997Z,23.64
2023-05-19T13:23:14.263Z,23.69
2023-05-19T13:25:41.587Z,23.94
2023-05-19T13:28:08.577Z,23.79
2023-05-19T13:30:38.201Z,24.16
2023-05-19T13:33:05.491Z,24.10
2023-05-19T13:35:37.003Z,24.36
2023-05-19T13:38:05.544Z,24.32
2023-05-19T13:40:35.468Z,24.40
2023-05-19T13:43:02.974Z,24.89
2023-05-19T13:45:29.523Z,24.64
2023-05-19T13:47:56.588Z,24.35
2023-05-19T13:50:23.298Z,24.56
2023-05-19T13:52:53.281Z,24.60
2023-05-19T13:55:19.875Z,24.63
2023-05-19T13:57:46.291Z,24.90
2023-05-19T14:00:13.320Z,25.96
2023-05-19T14:02:40.595Z,25.87
2023-05-19T14:05:08.692Z,25.68
2023-05-19T14:07:35.848Z,26.73
2023-05-19T14:10:05.341Z,26.95
2023-05-19T14:12:41.535Z,26.92
2023-05-19T14:15:18.742Z,27.34
2023-05-19T14:17:45.450Z,26.94
2023-05-19T14:20:12.480Z,27.08
2023-05-19T14:22:38.925Z,27.23
2023-05-19T14:25:06.031Z,27.09
2023-05-19T14:27:32.682Z,27.68
2023-05-19T14:29:59.129Z,27.76
2023-05-19T14:32:27.923Z,27.67
2023-05-19T14:34:58.628Z,27.97
2023-05-19T14:37:28.744Z,27.83
2023-05-19T14:39:55.601Z,27.43
2023-05-19T14:42:22.048Z,27.43
2023-05-19T14:44:48.475Z,27.48
2023-05-19T14:47:15.068Z,27.56
2023-05-19T14:49:41.621Z,27.78
2023-05-19T14:52:10.765Z,27.15
2023-05-19T14:54:37.219Z,26.60
2023-05-19T14:57:04.454Z,27.02
2023-05-19T14:59:37.429Z,27.04
2023-05-19T15:02:04.658Z,27.30
2023-05-19T15:04:33.732Z,27.50
2023-05-19T15:09:29.673Z,27.35
2023-05-19T15:11:56.124Z,27.76
2023-05-19T15:14:22.662Z,27.55
2023-05-19T15:16:50.574Z,28.09
2023-05-19T15:19:17.120Z,28.42
2023-05-19T15:21:45.569Z,28.38
2023-05-19T15:24:13.185Z,28.63
2023-05-19T15:26:39.719Z,28.85
2023-05-19T15:29:06.174Z,28.53
2023-05-19T15:31:37.997Z,28.64
2023-05-19T15:34:04.878Z,28.37
2023-05-19T15:36:32.823Z,28.80
2023-05-19T15:38:59.442Z,28.62
2023-05-19T15:41:28.977Z,28.62
2023-05-19T15:43:55.735Z,28.97
2023-05-19T15:46:22.696Z,28.63
2023-05-19T15:48:49.175Z,28.64
2023-05-19T15:51:15.912Z,29.13
2023-05-19T15:53:44.062Z,29.06
2023-05-19T15:56:10.749Z,29.16
2023-05-19T15:58:37.276Z,29.30
2023-05-19T16:01:03.809Z,29.29
2023-05-19T16:03:32.997Z,29.37
2023-05-19T16:05:59.542Z,29.79
2023-05-19T16:08:28.970Z,29.56
2023-05-19T16:10:55.549Z,29.77
2023-05-19T16:13:23.762Z,29.69
2023-05-19T16:15:54.735Z,29.59
2023-05-19T16:18:21.390Z,29.83
2023-05-19T16:20:47.858Z,29.13
2023-05-19T16:23:16.000Z,29.40
2023-05-19T16:25:44.615Z,29.38
2023-05-19T16:28:11.268Z,29.52
2023-05-19T16:30:38.002Z,29.68
2023-05-19T16:33:04.836Z,29.91
2023-05-19T16:35:32.094Z,30.09
2023-05-19T16:37:58.604Z,30.20
2023-05-19T16:40:30.144Z,30.05
2023-05-19T16:42:57.426Z,29.39
2023-05-19T16:45:23.971Z,30.06
2023-05-19T16:47:54.154Z,30.03
2023-05-19T16:50:20.726Z,30.37
2023-05-19T16:52:47.238Z,30.89
2023-05-19T16:55:19.378Z,31.45
2023-05-19T17:00:15.874Z,32.56
2023-05-19T17:02:42.577Z,33.09
2023-05-19T17:05:09.460Z,33.17
2023-05-19T17:07:35.987Z,33.26
2023-05-19T17:10:06.018Z,33.69
2023-05-19T17:12:32.778Z,33.67
2023-05-19T17:14:59.275Z,34.52
2023-05-19T17:17:25.817Z,35.17
2023-05-19T17:19:52.330Z,36.22
2023-05-19T17:22:19.185Z,37.47
2023-05-19T17:24:48.216Z,38.02
2023-05-19T17:27:15.080Z,39.86
2023-05-19T17:29:41.652Z,40.24
2023-05-19T17:32:08.237Z,40.73
2023-05-19T17:34:36.053Z,40.86
2023-05-19T17:37:02.570Z,40.84
2023-05-19T17:39:29.651Z,41.96
2023-05-19T17:41:56.336Z,42.43
2023-05-19T17:44:23.445Z,43.08
2023-05-19T17:46:50.063Z,43.73
2023-05-19T17:49:16.884Z,44.41
2023-05-19T17:51:43.633Z,43.91
2023-05-19T17:54:10.299Z,44.44
2023-05-19T17:56:42.276Z,44.43
2023-05-19T17:59:09.105Z,44.80
2023-05-19T18:01:35.957Z,44.95
2023-05-19T18:04:09.168Z,45.97
2023-05-19T18:06:40.572Z,46.35
2023-05-19T18:09:10.869Z,46.60
2023-05-19T18:11:37.433Z,47.61
2023-05-19T18:14:03.884Z,47.95
2023-05-19T18:16:30.454Z,48.30
2023-05-19T18:18:57.048Z,48.99
2023-05-19T18:21:24.541Z,49.06
2023-05-19T18:23:51.482Z,49.25
2023-05-19T18:26:17.970Z,49.92
2023-05-19T18:28:45.790Z,49.86
2023-05-19T18:31:19.002Z,49.67
2023-05-19T18:33:47.075Z,49.92
2023-05-19T18:36:16.298Z,50.30
2023-05-19T18:38:44.716Z,50.10
2023-05-19T18:41:13.556Z,50.45
2023-05-19T18:43:40.257Z,50.40
2023-05-19T18:46:06.848Z,50.58
2023-05-19T18:48:33.363Z,50.30
2023-05-19T18:51:00.180Z,50.10
2023-05-19T18:53:26.726Z,50.00
2023-05-19T18:55:53.171Z,49.73
2023-05-19T18:58:19.661Z,49.46
2023-05-19T19:00:49.113Z,49.61
2023-05-19T19:03:15.846Z,49.35
2023-05-19T19:05:43.586Z,49.11
2023-05-19T19:08:10.162Z,49.01
2023-05-19T19:10:39.076Z,49.25
2023-05-19T19:13:06.029Z,49.49
2023-05-19T19:15:32.569Z,49.58
2023-05-19T19:17:59.178Z,49.53
2023-05-19T19:20:25.792Z,49.71
2023-05-19T19:22:52.849Z,49.56
2023-05-19T19:25:23.083Z,49.45
2023-05-19T19:27:52.773Z,49.51
2023-05-19T19:30:19.422Z,49.41
2023-05-19T19:32:45.999Z,49.85
2023-05-19T19:35:12.634Z,50.11
2023-05-19T19:37:39.059Z,50.52
2023-05-19T19:40:06.481Z,51.00
2023-05-19T19:42:35.532Z,51.07
2023-05-19T19:45:02.049Z,50.23
2023-05-19T19:47:28.572Z,49.93
2023-05-19T19:49:55.930Z,49.19
2023-05-19T19:52:22.420Z,49.05
2023-05-19T19:54:49.030Z,49.00
2023-05-19T19:57:17.223Z,48.95
2023-05-19T19:59:43.775Z,48.81
2023-05-19T20:02:10.459Z,48.99
2023-05-19T20:04:38.378Z,49.13
2023-05-19T20:07:05.064Z,49.52
2023-05-19T20:09:31.606Z,49.76
2023-05-19T20:11:58.164Z,49.98
2023-05-19T20:14:26.485Z,50.50
2023-05-19T20:16:53.015Z,50.66
2023-05-19T20:19:20.494Z,51.09
2023-05-19T20:21:46.951Z,51.56
2023-05-19T20:24:13.492Z,51.71
2023-05-19T20:26:40.045Z,52.22
2023-05-19T20:29:06.565Z,52.52
2023-05-19T20:31:33.010Z,52.69
2023-05-19T20:34:02.199Z,52.70
2023-05-19T20:36:28.710Z,52.93
2023-05-19T20:38:55.212Z,53.13
2023-05-19T20:41:22.461Z,52.96
2023-05-19T20:43:52.203Z,52.99
2023-05-19T20:46:18.726Z,52.93
2023-05-19T20:48:45.385Z,52.85
2023-05-19T20:51:11.861Z,53.12
2023-05-19T20:53:38.490Z,52.82
2023-05-19T20:56:06.822Z,52.95
2023-05-19T20:58:33.361Z,52.85
2023-05-19T21:00:59.937Z,53.00
2023-05-19T21:03:27.231Z,52.52
2023-05-19T21:05:54.890Z,52.98
2023-05-19T21:08:21.475Z,52.81
2023-05-19T21:10:48.387Z,52.85
2023-05-19T21:13:15.028Z,52.66
2023-05-19T21:15:47.006Z,52.59
2023-05-19T21:18:13.436Z,52.81
2023-05-19T21:20:39.959Z,53.10
2023-05-19T21:23:06.471Z,53.13
2023-05-19T21:25:32.980Z,52.94
2023-05-19T21:27:59.625Z,53.03
2023-05-19T21:30:26.171Z,52.77
2023-05-19T21:32:52.745Z,53.18
2023-05-19T21:35:19.331Z,53.26
2023-05-19T21:37:46.925Z,53.21
2023-05-19T21:40:13.428Z,53.60
2023-05-19T21:42:39.870Z,53.57
2023-05-19T21:45:06.938Z,53.61
2023-05-19T21:47:33.437Z,53.37
2023-05-19T21:49:59.868Z,53.53
2023-05-19T21:52:26.483Z,53.47
2023-05-19T21:54:55.473Z,53.48
2023-05-19T21:57:21.972Z,53.58
2023-05-19T21:59:48.567Z,53.64
2023-05-19T22:02:15.622Z,53.70
2023-05-19T22:04:42.867Z,53.40
2023-05-19T22:07:09.329Z,53.74
2023-05-19T22:09:35.928Z,53.60
2023-05-19T22:12:02.436Z,53.53
2023-05-19T22:14:29.014Z,53.77
2023-05-19T22:16:55.614Z,53.72
2023-05-19T22:19:22.136Z,53.59
2023-05-19T22:21:50.407Z,53.74
2023-05-19T22:24:23.221Z,53.70
2023-05-19T22:26:49.736Z,53.89
2023-05-19T22:29:18.438Z,54.10
2023-05-19T22:31:47.457Z,53.79
2023-05-19T22:34:16.661Z,53.74
2023-05-19T22:36:45.908Z,53.93
2023-05-19T22:39:15.289Z,53.72
2023-05-19T22:41:42.024Z,53.85
2023-05-19T22:44:10.368Z,53.69
2023-05-19T22:46:37.131Z,53.95
2023-05-19T22:49:03.653Z,53.60
2023-05-19T22:51:30.198Z,53.69
2023-05-19T22:53:56.688Z,53.66
2023-05-19T22:56:23.230Z,53.56
2023-05-19T22:58:49.769Z,53.57
2023-05-19T23:01:17.074Z,53.80
2023-05-19T23:03:46.229Z,53.80
2023-05-19T23:06:12.782Z,53.79
2023-05-19T23:08:39.549Z,54.09
2023-05-19T23:11:05.958Z,54.04
2023-05-19T23:13:32.454Z,54.28
2023-05-19T23:15:58.943Z,54.30
2023-05-19T23:18:25.485Z,54.39
2023-05-19T23:20:52.865Z,54.39
2023-05-19T23:23:19.484Z,54.29
2023-05-19T23:25:46.288Z,54.23
2023-05-19T23:28:12.742Z,54.50
2023-05-19T23:30:39.416Z,54.52
2023-05-19T23:33:07.213Z,54.56
2023-05-19T23:35:34.100Z,54.76
2023-05-19T23:38:00.989Z,54.73
2023-05-19T23:40:27.516Z,54.80
2023-05-19T23:42:54.060Z,54.98
2023-05-19T23:45:20.605Z,55.22
2023-05-19T23:47:47.018Z,55.32
2023-05-19T23:50:13.566Z,55.33
2023-05-19T23:52:40.133Z,55.58
2023-05-19T23:55:07.422Z,55.61
2023-05-19T23:57:33.892Z,55.80
